Gary Chicago International Airport
KGYY : now visible

Airfield :











YOU CAN JOIN US ON...

 
LOGIN :

Register | Disclaimer

   EN    FR    IT 

 









Legend :    VFR   Marginal VFR   IFR   Intensive IFR   Very Intensive IFR
Visi :
Ceiling :
>= 8 km
>= 3000ft
5 to 8 km
1000 to 3000 ft
1500m to 5 km
500 to 1000 ft
800 to 1500m
200 to 500 ft
< 800m
< 200 ft
Symbols :   Thunderstorms  Fog  Heavy snow  Heavy precipitations  Wind > 20 kt






- Airport Elevation : 591 ft
- IATA code : GYY


KGYY - Gary Chicago International

CURRENT METAR :
  • 192345Z 28013G23KT 10SM CLR 13/M02 A3007

EXPIRED METARs :
  • 192245Z 29021G30KT 10SM CLR 13/M02 A3007
  • 192145Z 29016G24KT 10SM CLR 14/M02 A3006
  • 192045Z 30020G26KT 10SM CLR 14/M02 A3007
  • 191945Z 26020G32KT 10SM CLR 14/M02 A3009

TAF KGYY
Valid from the 20 at 00:00 until the 21 at 00:00 UTC


192320Z 2000/2024 28018G30KT P6SM FEW050 SCT150
FM200100 30014G24KT P6SM SCT200
FM201600 29012G18KT P6SM BKN050
KZAU FIR / North America



MET'MAP, your aeronautical weather chart ! - Copyright ORBIFLY December 2007 - Disclaimer

ORBIFLY MET'MAP TEAM :

Programming & Development : Alexandra Zaïnal
Original concept : Baudouin d'Aumeries
Technical & hardware support : Manuel Goepfert
Assistance : Marc-Olivier Méhu




SOURCES & CREDITS :

   NOAA       Earth
Advisory